Terminal Aerodrome Forecast
Issued by NWS

Home | Current Version | Previous Version | Graphics & Text | Print | Product List | Glossary On
Versions: 1 2 3 4 5 6 7 8 9 10 11 12 13 14 15
556
FTUS43 KGRB 260216 AAA
TAFCWA
TAF AMD
KCWA 260216Z 2602/2624 VRB03KT P6SM FEW200
     FM261400 25008KT P6SM SCT200
     FM262100 30011KT P6SM BKN050 OVC150 PROB30 2621/2624 6SM -SHRA
      AMD LTD TO CLD VIS AND WIND 2603/2611=

USA.gov is the U.S. government's official web portal to all federal, state and local government web resources and services.